Time;durP1;ratioP1;P1;durP2;ratioP2;P2;SDS_P1;SDS_P2;PMS_P1;PMS_P2;Temp;Humidity;BMP_temperature;BMP_pressure;BME280_temperature;BME280_humidity;BME280_pressure;Samples;Min_cycle;Max_cycle;Signal;HPM_P1;HPM_P2
2022/04/27 00:00:35;;;;;;;14.45;10.00;;;8.40;99.90;;;;;;6231663;23;20180;-75
2022/04/27 05:01:54;;;;;;;27.77;17.45;;;9.50;99.90;;;;;;6094729;23;20028;-74
2022/04/27 05:04:46;;;;;;;26.58;17.52;;;9.60;99.90;;;;;;6192073;23;20013;-74
2022/04/27 05:07:35;;;;;;;28.05;17.83;;;9.60;99.90;;;;;;6191024;23;20234;-75
2022/04/27 05:10:19;;;;;;;28.77;18.73;;;9.70;99.90;;;;;;6203749;23;20012;-77
2022/04/27 05:13:17;;;;;;;27.27;17.98;;;9.80;99.90;;;;;;6187499;23;20009;-76
2022/04/27 05:16:12;;;;;;;29.67;19.05;;;9.80;99.90;;;;;;6175517;23;20013;-75
2022/04/27 05:18:54;;;;;;;26.60;18.02;;;9.90;99.90;;;;;;6168369;23;20021;-74
2022/04/27 05:21:38;;;;;;;29.05;17.48;;;9.90;99.90;;;;;;6192797;23;20012;-74
2022/04/27 05:24:04;;;;;;;30.40;19.55;;;9.90;99.90;;;;;;6204528;23;20056;-74
2022/04/27 05:26:48;;;;;;;26.15;16.45;;;10.00;99.90;;;;;;6192853;23;20055;-76
2022/04/27 05:32:21;;;;;;;25.02;16.23;;;10.10;99.90;;;;;;6193037;23;20021;-75
2022/04/27 05:34:59;;;;;;;28.17;17.75;;;10.20;99.90;;;;;;6192889;23;20009;-75
2022/04/27 05:37:47;;;;;;;24.83;16.25;;;10.30;99.90;;;;;;6183233;23;20009;-75
2022/04/27 05:40:43;;;;;;;25.83;16.95;;;10.30;99.90;;;;;;6193198;23;20005;-75
2022/04/27 05:43:41;;;;;;;27.90;17.75;;;10.30;99.90;;;;;;6170307;23;20013;-75
2022/04/27 05:46:34;;;;;;;26.25;15.60;;;10.40;99.90;;;;;;6189787;23;20032;-75
2022/04/27 05:49:30;;;;;;;26.15;16.55;;;10.40;99.90;;;;;;6203074;23;20017;-75
2022/04/27 05:52:52;;;;;;;26.77;16.98;;;10.40;99.90;;;;;;6171007;23;20009;-77
2022/04/27 05:55:56;;;;;;;26.05;17.05;;;10.50;99.90;;;;;;6141969;23;20065;-74
2022/04/27 05:58:43;;;;;;;28.45;17.60;;;10.50;99.90;;;;;;6161074;23;20032;-76
2022/04/27 06:01:29;;;;;;;28.05;17.75;;;10.50;99.90;;;;;;6166283;23;20013;-74
2022/04/27 06:04:04;;;;;;;26.55;17.20;;;10.50;99.90;;;;;;6190783;23;20025;-75
2022/04/27 06:06:34;;;;;;;25.50;16.73;;;10.40;99.90;;;;;;6191701;23;20036;-75
2022/04/27 06:09:01;;;;;;;25.35;17.15;;;10.30;99.90;;;;;;6192365;23;20305;-74
2022/04/27 06:11:48;;;;;;;25.40;17.35;;;10.20;99.90;;;;;;6192163;23;20358;-75
2022/04/27 06:14:35;;;;;;;24.48;16.33;;;10.20;99.90;;;;;;6216462;23;20009;-75
2022/04/27 06:17:02;;;;;;;26.55;17.02;;;10.20;99.90;;;;;;6191921;23;20068;-74
2022/04/27 06:19:27;;;;;;;22.95;15.52;;;10.20;99.90;;;;;;6191203;23;20029;-76
2022/04/27 06:21:54;;;;;;;20.15;14.27;;;10.30;99.90;;;;;;6192533;23;20199;-74
2022/04/27 06:24:21;;;;;;;24.02;16.15;;;10.40;99.90;;;;;;6191869;23;20005;-75
2022/04/27 06:26:52;;;;;;;24.23;16.23;;;10.50;99.90;;;;;;6192335;23;20341;-75
2022/04/27 06:29:18;;;;;;;24.83;16.35;;;10.70;99.90;;;;;;6203277;23;20001;-75
2022/04/27 06:31:47;;;;;;;22.52;15.57;;;10.80;99.90;;;;;;6191236;23;20299;-75
2022/04/27 06:34:13;;;;;;;22.05;15.02;;;11.00;99.90;;;;;;6192202;23;19993;-74
2022/04/27 06:36:39;;;;;;;22.85;15.95;;;11.20;99.90;;;;;;6192166;23;20009;-75
2022/04/27 06:39:08;;;;;;;;;;;11.50;99.90;;;;;;6192925;23;20160;-74
2022/04/27 06:41:35;;;;;;;22.58;14.82;;;11.70;99.90;;;;;;6191551;23;19968;-76
2022/04/27 06:44:23;;;;;;;22.27;14.27;;;11.90;99.90;;;;;;6201414;23;19997;-76
2022/04/27 06:47:08;;;;;;;18.42;13.38;;;12.00;99.90;;;;;;6194296;23;20047;-74
2022/04/27 06:49:52;;;;;;;20.38;14.75;;;12.30;99.90;;;;;;6205154;23;20309;-74
2022/04/27 06:52:45;;;;;;;20.92;14.77;;;12.30;99.90;;;;;;6193105;23;20019;-75
2022/04/27 06:55:30;;;;;;;23.08;15.23;;;12.30;99.90;;;;;;6193538;23;20242;-74
2022/04/27 06:58:29;;;;;;;22.55;15.65;;;12.30;99.90;;;;;;6193757;23;20312;-74
2022/04/27 07:01:00;;;;;;;19.08;13.50;;;12.20;99.90;;;;;;6193113;23;20337;-75
2022/04/27 07:03:28;;;;;;;16.77;11.45;;;12.20;99.90;;;;;;6193009;23;20020;-76
2022/04/27 07:05:54;;;;;;;16.60;12.20;;;12.20;99.90;;;;;;6205577;23;20287;-75
2022/04/27 07:08:19;;;;;;;15.60;11.13;;;12.20;99.90;;;;;;6193508;23;20036;-76
2022/04/27 07:10:45;;;;;;;17.00;11.32;;;12.10;99.90;;;;;;6205656;23;20001;-75
2022/04/27 07:13:11;;;;;;;17.42;11.30;;;12.00;99.90;;;;;;6204162;23;20056;-75
2022/04/27 07:15:37;;;;;;;15.32;10.68;;;11.90;99.90;;;;;;6201385;23;20060;-75
2022/04/27 07:18:02;;;;;;;14.23;10.60;;;11.90;99.90;;;;;;6204997;23;20067;-75
2022/04/27 07:20:28;;;;;;;13.07;9.98;;;11.90;99.90;;;;;;6204551;23;20004;-75
2022/04/27 07:22:54;;;;;;;14.07;10.55;;;12.10;99.90;;;;;;6204892;23;20001;-75
2022/04/27 07:25:23;;;;;;;13.75;9.88;;;12.10;99.90;;;;;;6204605;23;20163;-75
2022/04/27 07:27:49;;;;;;;15.23;10.07;;;12.20;99.90;;;;;;6204729;23;20001;-74
2022/04/27 07:30:15;;;;;;;15.73;9.75;;;12.30;99.90;;;;;;6203724;23;20036;-75
2022/04/27 07:32:41;;;;;;;13.55;9.82;;;12.20;99.90;;;;;;6203815;23;20005;-75
2022/04/27 07:35:07;;;;;;;13.82;9.52;;;12.30;99.90;;;;;;6204662;23;20007;-75
2022/04/27 07:37:37;;;;;;;12.00;8.60;;;12.50;99.90;;;;;;6204206;23;20004;-75
2022/04/27 07:40:04;;;;;;;11.40;8.52;;;12.70;99.90;;;;;;6205329;23;20021;-74
2022/04/27 07:42:29;;;;;;;13.50;8.77;;;12.90;99.90;;;;;;6204176;23;20185;-75
2022/04/27 07:44:55;;;;;;;12.65;8.60;;;13.00;99.90;;;;;;6205130;23;20001;-74
2022/04/27 07:47:21;;;;;;;12.45;9.00;;;13.10;99.90;;;;;;6194121;23;20013;-75
2022/04/27 07:49:47;;;;;;;12.93;9.20;;;13.10;99.90;;;;;;6204759;23;20025;-73
2022/04/27 07:52:13;;;;;;;12.98;8.98;;;13.20;99.90;;;;;;6204786;23;20027;-73
2022/04/27 07:54:43;;;;;;;12.30;8.70;;;13.30;99.90;;;;;;6204243;23;20001;-75
2022/04/27 07:57:09;;;;;;;12.45;8.85;;;13.20;99.90;;;;;;6204887;23;20001;-73
2022/04/27 07:59:35;;;;;;;12.13;8.18;;;13.30;99.90;;;;;;6204236;23;20290;-73
2022/04/27 08:02:00;;;;;;;11.63;7.97;;;13.40;99.90;;;;;;6201570;23;20338;-74
2022/04/27 08:04:26;;;;;;;12.27;8.00;;;13.60;99.90;;;;;;6233046;23;20253;-74
2022/04/27 08:06:52;;;;;;;12.77;8.82;;;13.70;99.90;;;;;;6207830;23;20035;-74
2022/04/27 08:09:17;;;;;;;10.10;7.45;;;13.90;99.80;;;;;;6233364;23;20008;-75
2022/04/27 08:11:43;;;;;;;11.80;7.95;;;14.10;99.80;;;;;;6234079;23;20059;-75
2022/04/27 08:14:09;;;;;;;13.27;8.02;;;14.30;99.40;;;;;;6234246;23;19993;-74
2022/04/27 08:16:35;;;;;;;10.95;7.63;;;14.50;98.50;;;;;;6226467;23;20012;-74
2022/04/27 08:19:00;;;;;;;10.60;7.75;;;14.50;98.10;;;;;;6234315;23;20042;-74
2022/04/27 08:21:27;;;;;;;11.00;7.82;;;14.50;97.60;;;;;;6234349;23;20001;-74
2022/04/27 08:23:53;;;;;;;12.27;8.05;;;14.50;97.00;;;;;;6235006;23;20271;-74
2022/04/27 08:26:19;;;;;;;10.48;7.72;;;14.20;97.20;;;;;;6207539;23;20056;-74
2022/04/27 08:28:45;;;;;;;14.18;8.82;;;14.20;97.50;;;;;;6234236;23;20130;-74
2022/04/27 08:31:13;;;;;;;15.13;9.25;;;14.20;97.10;;;;;;6228979;23;20009;-74
2022/04/27 08:33:39;;;;;;;19.45;8.73;;;14.20;97.30;;;;;;6234251;23;20072;-73
2022/04/27 08:36:14;;;;;;;13.07;9.20;;;14.50;96.50;;;;;;6234146;23;20375;-74
2022/04/27 08:38:45;;;;;;;13.23;9.20;;;14.80;95.30;;;;;;6235153;23;20000;-74
2022/04/27 08:41:12;;;;;;;13.45;9.27;;;14.80;94.90;;;;;;6234411;23;20001;-74
2022/04/27 08:43:38;;;;;;;13.85;9.15;;;14.80;95.70;;;;;;6233461;23;20051;-74
2022/04/27 08:46:04;;;;;;;12.00;8.52;;;14.80;95.40;;;;;;6229093;23;20048;-74
2022/04/27 08:48:31;;;;;;;13.23;9.07;;;15.10;95.40;;;;;;6233263;23;20242;-75
2022/04/27 08:50:57;;;;;;;12.15;8.75;;;15.40;94.40;;;;;;6233851;23;20007;-75
2022/04/27 08:53:23;;;;;;;11.40;8.23;;;15.50;93.80;;;;;;6233384;23;20358;-74
2022/04/27 08:55:52;;;;;;;11.70;8.68;;;15.50;94.30;;;;;;6233640;23;20181;-74
2022/04/27 08:58:22;;;;;;;13.90;8.20;;;15.90;93.40;;;;;;6233840;23;20024;-74
2022/04/27 09:00:48;;;;;;;10.65;7.53;;;16.00;92.80;;;;;;6230245;23;20206;-74
2022/04/27 09:03:34;;;;;;;10.98;8.13;;;15.70;93.20;;;;;;6233500;23;20068;-74
2022/04/27 09:06:09;;;;;;;12.35;7.80;;;15.70;92.90;;;;;;6234517;23;20015;-74
2022/04/27 09:08:48;;;;;;;11.07;7.78;;;15.90;92.90;;;;;;6207623;23;20007;-74
2022/04/27 09:11:21;;;;;;;10.68;7.03;;;15.90;92.90;;;;;;6233801;23;20007;-73
2022/04/27 09:13:55;;;;;;;9.43;6.75;;;16.00;92.70;;;;;;6234234;23;20056;-74
2022/04/27 09:16:26;;;;;;;8.27;6.50;;;15.90;92.10;;;;;;6227327;23;20009;-75
2022/04/27 09:22:03;;;;;;;9.23;5.82;;;16.00;92.20;;;;;;6233183;23;20023;-75
2022/04/27 09:24:46;;;;;;;11.32;5.50;;;15.90;92.20;;;;;;6233622;23;20190;-73
2022/04/27 09:27:14;;;;;;;8.52;5.35;;;16.30;91.70;;;;;;6233999;23;20047;-75
2022/04/27 09:29:40;;;;;;;7.57;5.05;;;16.30;91.50;;;;;;6233530;23;20031;-74
2022/04/27 09:32:08;;;;;;;7.50;5.50;;;16.60;91.30;;;;;;6224258;23;20013;-73
2022/04/27 09:34:47;;;;;;;8.25;5.30;;;16.70;91.00;;;;;;6233779;23;20001;-74
2022/04/27 09:37:24;;;;;;;12.38;5.57;;;16.70;90.90;;;;;;6234059;23;20020;-75
2022/04/27 09:40:07;;;;;;;7.53;4.90;;;16.70;91.00;;;;;;6234244;23;20008;-73
2022/04/27 09:42:37;;;;;;;5.72;4.35;;;16.80;90.30;;;;;;6233603;23;20051;-75
2022/04/27 09:45:18;;;;;;;6.28;4.28;;;17.00;89.90;;;;;;6233314;23;20009;-76
2022/04/27 09:48:04;;;;;;;5.80;3.72;;;17.10;89.00;;;;;;6233229;23;20302;-75
2022/04/27 09:50:55;;;;;;;5.18;3.55;;;17.20;87.30;;;;;;6233615;23;20001;-76
2022/04/27 09:53:21;;;;;;;5.22;3.67;;;17.30;87.30;;;;;;6232887;23;20064;-75
2022/04/27 09:55:52;;;;;;;5.90;3.85;;;17.40;87.20;;;;;;6234159;23;20005;-75
2022/04/27 09:58:21;;;;;;;5.10;3.00;;;17.50;86.70;;;;;;6233909;23;20000;-74
2022/04/27 10:00:50;;;;;;;4.65;2.50;;;17.70;86.50;;;;;;6230353;23;20009;-75
2022/04/27 10:03:21;;;;;;;4.43;3.30;;;17.80;85.10;;;;;;6233473;23;20009;-75
2022/04/27 10:05:47;;;;;;;4.88;3.35;;;18.10;85.10;;;;;;6233285;23;20030;-73
2022/04/27 10:08:13;;;;;;;4.53;3.30;;;18.20;83.90;;;;;;6207192;23;20188;-73
2022/04/27 10:10:41;;;;;;;5.93;2.97;;;18.30;83.00;;;;;;6232738;23;19999;-74
2022/04/27 10:13:14;;;;;;;3.85;2.63;;;18.60;82.90;;;;;;6233464;23;20060;-74
2022/04/27 10:15:43;;;;;;;5.15;2.47;;;18.90;82.10;;;;;;6230156;23;20019;-76
2022/04/27 10:18:15;;;;;;;;;;;18.70;81.80;;;;;;6234662;23;20012;-76
2022/04/27 10:20:41;;;;;;;4.18;2.60;;;18.60;81.90;;;;;;6233431;23;20149;-76
2022/04/27 10:23:32;;;;;;;2.95;2.25;;;18.40;82.30;;;;;;6234194;23;20191;-76
2022/04/27 10:26:29;;;;;;;3.40;2.53;;;18.70;81.30;;;;;;6236018;23;20194;-74
2022/04/27 10:29:06;;;;;;;3.45;2.30;;;18.50;81.00;;;;;;6203670;23;20020;-75
2022/04/27 10:31:44;;;;;;;3.20;2.10;;;18.50;81.10;;;;;;6228137;23;20012;-75
2022/04/27 10:34:23;;;;;;;4.03;2.47;;;18.30;81.70;;;;;;6235439;23;20000;-74
2022/04/27 10:36:50;;;;;;;3.35;2.35;;;18.20;81.00;;;;;;6235752;23;20008;-74
2022/04/27 10:39:27;;;;;;;3.50;2.45;;;18.10;81.40;;;;;;6235376;23;20095;-74
2022/04/27 10:41:55;;;;;;;2.95;2.00;;;18.00;81.40;;;;;;6235990;23;20072;-74
2022/04/27 10:44:41;;;;;;;4.82;2.25;;;18.00;83.00;;;;;;6235829;23;19995;-76
2022/04/27 10:47:21;;;;;;;3.78;2.47;;;18.10;82.60;;;;;;6225769;23;20079;-75
2022/04/27 10:49:50;;;;;;;3.92;2.30;;;18.00;81.00;;;;;;6235291;23;20007;-74
2022/04/27 10:52:22;;;;;;;3.92;2.70;;;17.70;83.10;;;;;;6235030;23;20130;-74
2022/04/27 10:54:48;;;;;;;5.82;2.63;;;17.50;83.90;;;;;;6235545;23;20027;-75
2022/04/27 10:57:17;;;;;;;3.13;2.25;;;17.40;83.60;;;;;;6235399;23;20271;-75
2022/04/27 10:59:59;;;;;;;3.42;2.58;;;17.50;83.30;;;;;;6234432;23;20012;-76
2022/04/27 11:02:34;;;;;;;5.47;2.42;;;17.60;82.70;;;;;;6223911;23;20071;-76
2022/04/27 11:05:20;;;;;;;4.38;2.70;;;17.80;82.30;;;;;;6198732;23;20070;-75
2022/04/27 11:08:06;;;;;;;4.97;2.83;;;18.10;82.00;;;;;;6233801;23;20012;-75
2022/04/27 11:10:32;;;;;;;5.20;3.10;;;18.00;81.10;;;;;;6234406;23;19996;-75
2022/04/27 11:12:57;;;;;;;4.40;2.70;;;18.00;81.80;;;;;;6235196;23;20333;-77
2022/04/27 11:15:25;;;;;;;3.40;2.40;;;17.90;82.20;;;;;;6232081;23;20306;-74
2022/04/27 11:18:01;;;;;;;4.78;2.97;;;17.90;82.60;;;;;;6174457;23;20012;-74
2022/04/27 11:20:38;;;;;;;5.70;2.90;;;18.00;82.50;;;;;;6234343;23;20012;-76
2022/04/27 11:23:08;;;;;;;3.63;2.63;;;18.40;81.60;;;;;;6234389;23;20016;-75
2022/04/27 11:25:40;;;;;;;4.35;3.08;;;19.30;80.80;;;;;;6234721;23;20187;-76
2022/04/27 11:28:07;;;;;;;3.67;2.50;;;20.10;76.60;;;;;;6235226;23;20004;-74
2022/04/27 11:30:34;;;;;;;3.60;2.85;;;21.20;76.60;;;;;;6231870;23;20009;-74
2022/04/27 11:33:01;;;;;;;7.07;3.80;;;22.10;72.40;;;;;;6233499;23;20328;-75
2022/04/27 11:35:47;;;;;;;3.90;3.13;;;22.40;71.70;;;;;;6234152;23;20040;-75
2022/04/27 11:38:17;;;;;;;3.38;2.70;;;21.40;72.10;;;;;;6208742;23;20000;-75
2022/04/27 11:40:44;;;;;;;4.25;2.80;;;21.40;73.40;;;;;;6234287;23;20421;-75
2022/04/27 11:43:10;;;;;;;3.65;2.83;;;23.20;70.30;;;;;;6234895;23;19996;-75
2022/04/27 11:45:36;;;;;;;4.25;2.53;;;22.60;69.00;;;;;;6231170;23;20027;-76
2022/04/27 11:48:09;;;;;;;3.80;2.35;;;23.00;70.00;;;;;;6197742;23;20048;-75
2022/04/27 11:50:37;;;;;;;4.30;2.53;;;23.30;69.40;;;;;;6197732;23;20273;-75
2022/04/27 11:53:03;;;;;;;;;;;23.10;68.60;;;;;;6234395;23;20210;-75
2022/04/27 11:55:29;;;;;;;3.10;2.78;;;22.50;68.20;;;;;;6233752;23;19957;-75
2022/04/27 11:57:55;;;;;;;4.78;2.67;;;21.80;70.70;;;;;;6234800;23;19993;-75
2022/04/27 12:00:25;;;;;;;5.30;2.63;;;22.50;69.90;;;;;;6232623;23;20036;-76
2022/04/27 12:02:53;;;;;;;3.65;2.38;;;22.60;68.50;;;;;;6234539;23;20015;-75
2022/04/27 12:05:29;;;;;;;3.13;2.13;;;22.90;68.00;;;;;;6234512;23;20198;-74
2022/04/27 12:07:55;;;;;;;2.95;2.28;;;22.80;68.30;;;;;;6233488;23;20001;-73
2022/04/27 12:10:21;;;;;;;3.00;2.42;;;22.20;69.00;;;;;;6233920;23;20193;-73
2022/04/27 12:12:47;;;;;;;4.70;2.83;;;21.60;69.80;;;;;;6232612;23;20004;-75
2022/04/27 12:15:14;;;;;;;3.72;2.63;;;21.70;69.50;;;;;;6232997;23;20244;-74
2022/04/27 12:17:50;;;;;;;3.13;2.40;;;21.40;70.50;;;;;;6233845;23;20055;-74
2022/04/27 12:20:27;;;;;;;2.85;2.25;;;21.60;70.80;;;;;;6234411;23;20164;-74
2022/04/27 12:22:56;;;;;;;3.25;2.38;;;21.90;70.50;;;;;;6234318;23;20051;-74
2022/04/27 12:25:38;;;;;;;3.38;2.70;;;21.90;70.30;;;;;;6234068;23;20001;-74
2022/04/27 12:28:06;;;;;;;4.07;2.60;;;21.20;70.90;;;;;;6233711;23;20021;-73
2022/04/27 12:30:43;;;;;;;2.97;2.50;;;20.80;71.50;;;;;;6196150;23;20028;-74
2022/04/27 12:33:12;;;;;;;3.78;2.47;;;20.30;71.90;;;;;;6234376;23;20243;-74
2022/04/27 12:38:25;;;;;;;3.95;2.80;;;19.80;73.80;;;;;;6234209;23;19919;-74
2022/04/27 12:40:51;;;;;;;3.63;2.88;;;19.50;75.50;;;;;;6197063;23;20191;-74
2022/04/27 12:43:17;;;;;;;3.63;2.90;;;19.30;75.40;;;;;;6233980;23;20302;-74
2022/04/27 12:46:21;;;;;;;5.00;2.58;;;18.90;75.40;;;;;;6229493;23;20027;-75
2022/04/27 12:49:00;;;;;;;3.78;2.85;;;18.80;76.40;;;;;;6130119;23;20236;-74
2022/04/27 12:51:29;;;;;;;5.13;3.20;;;18.80;76.50;;;;;;6142319;23;20013;-74
2022/04/27 12:53:55;;;;;;;4.45;3.13;;;18.40;77.20;;;;;;6142606;23;20236;-74
2022/04/27 12:56:22;;;;;;;4.90;3.08;;;18.10;78.00;;;;;;6141366;23;20014;-74
2022/04/27 12:59:05;;;;;;;4.93;3.33;;;17.90;78.10;;;;;;6142436;23;20033;-74
2022/04/27 13:01:31;;;;;;;5.68;3.13;;;17.80;78.80;;;;;;6134830;23;20013;-73
2022/04/27 13:03:58;;;;;;;4.85;3.10;;;17.60;80.00;;;;;;6107674;23;20009;-73
2022/04/27 13:06:23;;;;;;;5.20;3.60;;;17.50;80.70;;;;;;6141126;23;20033;-74
2022/04/27 13:08:50;;;;;;;4.40;3.33;;;17.30;81.20;;;;;;6141912;23;20102;-74
2022/04/27 13:14:02;;;;;;;8.93;4.35;;;16.70;82.20;;;;;;6142347;23;20012;-75
2022/04/27 13:16:27;;;;;;;6.10;3.22;;;16.60;82.80;;;;;;6135052;23;20042;-75
2022/04/27 13:18:55;;;;;;;6.03;3.20;;;16.50;83.20;;;;;;6163747;23;20147;-75
2022/04/27 13:21:21;;;;;;;5.60;3.50;;;16.40;82.70;;;;;;6233908;23;20012;-75
2022/04/27 13:23:47;;;;;;;4.32;3.65;;;16.60;84.70;;;;;;6233433;23;20000;-75
2022/04/27 13:26:12;;;;;;;4.53;3.30;;;16.60;83.50;;;;;;6233237;23;20017;-75
2022/04/27 13:28:40;;;;;;;6.45;3.55;;;16.60;83.80;;;;;;6196939;23;20060;-75
2022/04/27 13:31:09;;;;;;;5.25;3.70;;;16.80;82.90;;;;;;6228354;23;20013;-75
2022/04/27 13:33:35;;;;;;;6.32;3.70;;;16.80;83.00;;;;;;6196906;23;20186;-75
2022/04/27 13:36:01;;;;;;;5.13;3.63;;;17.00;82.70;;;;;;6207302;23;20004;-75
2022/04/27 13:38:30;;;;;;;4.43;3.13;;;17.10;81.30;;;;;;6207350;23;20155;-76
2022/04/27 13:40:55;;;;;;;5.10;2.97;;;17.10;83.10;;;;;;6234164;23;20009;-76
2022/04/27 13:43:21;;;;;;;3.70;3.17;;;17.50;82.50;;;;;;6196658;23;20044;-76
2022/04/27 13:45:47;;;;;;;4.70;3.40;;;17.90;80.70;;;;;;6229223;23;20306;-74
2022/04/27 13:48:13;;;;;;;4.60;3.20;;;18.30;80.50;;;;;;6233443;23;20051;-76
2022/04/27 13:50:39;;;;;;;5.25;3.40;;;18.70;79.90;;;;;;6232993;23;20051;-75
2022/04/27 13:53:05;;;;;;;5.57;3.25;;;18.90;78.80;;;;;;6234119;23;20016;-74
2022/04/27 13:55:32;;;;;;;4.32;3.30;;;19.00;77.40;;;;;;6232752;23;20023;-75
2022/04/27 13:58:01;;;;;;;5.63;3.97;;;19.00;77.30;;;;;;6233260;23;20004;-75
2022/04/27 14:00:26;;;;;;;6.22;3.65;;;18.80;77.00;;;;;;6231573;23;20124;-74
2022/04/27 14:02:52;;;;;;;5.40;3.78;;;18.50;78.70;;;;;;6233546;23;20013;-75
2022/04/27 14:05:19;;;;;;;5.43;3.50;;;18.30;79.10;;;;;;6233871;23;20047;-75
2022/04/27 14:07:45;;;;;;;5.15;3.45;;;18.40;79.20;;;;;;6194641;23;20004;-76
2022/04/27 14:10:13;;;;;;;5.43;4.07;;;18.80;81.50;;;;;;6233199;23;20051;-76
2022/04/27 14:15:32;;;;;;;5.90;3.10;;;19.30;76.60;;;;;;6196307;23;20009;-75
2022/04/27 14:18:10;;;;;;;4.75;3.42;;;19.60;76.90;;;;;;6207190;23;20183;-79
2022/04/27 14:20:40;;;;;;;3.90;3.30;;;19.90;75.50;;;;;;6233026;23;20000;-76
2022/04/27 14:23:09;;;;;;;4.40;2.97;;;20.30;76.10;;;;;;6233446;23;20317;-75
2022/04/27 14:25:40;;;;;;;6.60;3.10;;;20.70;74.20;;;;;;6206694;23;20017;-76
2022/04/27 14:28:06;;;;;;;5.30;3.30;;;20.90;73.30;;;;;;6233418;23;20008;-75
2022/04/27 14:30:33;;;;;;;4.63;3.20;;;21.20;73.10;;;;;;6203328;23;20326;-75
2022/04/27 14:32:59;;;;;;;3.63;2.60;;;23.30;69.60;;;;;;6233370;23;20012;-76
2022/04/27 14:35:25;;;;;;;3.63;2.70;;;24.30;67.10;;;;;;6232868;23;20011;-76
2022/04/27 14:37:51;;;;;;;4.70;2.63;;;24.80;66.50;;;;;;6206214;23;20449;-75
2022/04/27 14:40:18;;;;;;;5.43;2.67;;;25.70;63.30;;;;;;6233252;23;20192;-76
2022/04/27 14:42:45;;;;;;;6.10;3.15;;;26.60;61.90;;;;;;6232451;23;20161;-76
2022/04/27 14:45:12;;;;;;;7.28;3.17;;;26.00;61.40;;;;;;6231932;23;20111;-74
2022/04/27 14:47:38;;;;;;;3.78;2.72;;;26.40;61.50;;;;;;6233064;23;20060;-75
2022/04/27 14:50:06;;;;;;;3.72;2.70;;;28.30;59.70;;;;;;6233726;23;20001;-74
2022/04/27 14:52:36;;;;;;;3.72;2.50;;;30.70;57.40;;;;;;6231851;23;20019;-74
2022/04/27 14:55:04;;;;;;;4.97;2.72;;;32.00;54.70;;;;;;6198085;23;20000;-75
2022/04/27 14:57:30;;;;;;;3.40;2.22;;;33.40;53.10;;;;;;6232832;23;20012;-76
2022/04/27 14:59:57;;;;;;;4.45;2.30;;;34.10;51.60;;;;;;6233955;23;20035;-75
2022/04/27 15:02:23;;;;;;;3.13;2.20;;;34.50;50.40;;;;;;6222235;23;20028;-75
2022/04/27 15:04:50;;;;;;;5.85;2.88;;;35.20;49.60;;;;;;6233025;23;20309;-74
2022/04/27 15:07:16;;;;;;;2.90;2.30;;;35.40;49.00;;;;;;6233770;23;20001;-75
2022/04/27 15:09:42;;;;;;;2.50;1.95;;;35.40;47.90;;;;;;6233381;23;20255;-74
2022/04/27 15:12:09;;;;;;;3.13;2.35;;;36.20;47.10;;;;;;6234175;23;20062;-74
2022/04/27 15:14:35;;;;;;;3.05;2.28;;;36.80;46.60;;;;;;6234412;23;20086;-75
2022/04/27 15:17:02;;;;;;;2.83;2.53;;;36.50;45.50;;;;;;6226030;23;20028;-74
2022/04/27 15:19:27;;;;;;;3.05;2.28;;;35.20;46.50;;;;;;6234922;23;20305;-74
2022/04/27 15:24:38;;;;;;;2.83;2.30;;;30.00;49.30;;;;;;6234706;23;20001;-77
2022/04/27 15:27:04;;;;;;;3.45;2.70;;;28.40;51.60;;;;;;6198417;23;20094;-76
2022/04/27 15:29:32;;;;;;;3.53;2.40;;;27.60;52.10;;;;;;6235240;23;20008;-76
2022/04/27 15:32:05;;;;;;;3.45;2.53;;;27.10;52.50;;;;;;6225624;23;20023;-76
2022/04/27 15:34:31;;;;;;;3.17;2.70;;;28.20;52.00;;;;;;6235138;23;20052;-76
2022/04/27 15:36:57;;;;;;;3.80;2.60;;;30.00;50.00;;;;;;6233847;23;20018;-74
2022/04/27 15:39:23;;;;;;;3.60;2.63;;;30.70;49.20;;;;;;6233432;23;20020;-74
2022/04/27 15:41:48;;;;;;;4.57;2.65;;;31.80;50.40;;;;;;6234661;23;20088;-74
2022/04/27 15:44:14;;;;;;;3.20;2.47;;;33.50;47.60;;;;;;6235163;23;20000;-74
2022/04/27 15:46:41;;;;;;;3.25;2.65;;;33.60;46.70;;;;;;6226695;23;20030;-74
2022/04/27 15:49:09;;;;;;;2.50;2.10;;;33.90;46.80;;;;;;6235085;23;20047;-74
2022/04/27 15:51:37;;;;;;;3.25;2.50;;;34.10;46.00;;;;;;6234960;23;20008;-75
2022/04/27 15:54:04;;;;;;;3.10;2.40;;;34.70;46.10;;;;;;6234306;23;20035;-76
2022/04/27 15:56:30;;;;;;;3.25;2.13;;;34.70;45.00;;;;;;6235010;23;20012;-76
2022/04/27 15:59:01;;;;;;;2.72;2.33;;;34.60;45.10;;;;;;6233967;23;20198;-76
2022/04/27 16:01:27;;;;;;;2.90;2.28;;;34.90;46.20;;;;;;6228435;23;20055;-76
2022/04/27 16:03:53;;;;;;;3.25;2.17;;;35.10;46.20;;;;;;6233735;23;20017;-75
2022/04/27 16:06:19;;;;;;;2.60;2.35;;;35.70;46.70;;;;;;6235145;23;20004;-75
2022/04/27 16:08:45;;;;;;;4.47;2.35;;;35.80;45.10;;;;;;6233213;23;19988;-75
2022/04/27 16:11:10;;;;;;;3.15;2.20;;;35.20;45.70;;;;;;6234038;23;20000;-75
2022/04/27 16:13:36;;;;;;;2.50;2.00;;;34.90;45.60;;;;;;6234148;23;20001;-75
2022/04/27 16:16:02;;;;;;;3.10;2.53;;;34.60;46.00;;;;;;6228620;23;20034;-75
2022/04/27 16:18:28;;;;;;;3.47;2.10;;;34.40;44.50;;;;;;6234500;23;19993;-75
2022/04/27 16:23:38;;;;;;;2.90;2.40;;;34.20;45.70;;;;;;6234167;23;20001;-75
2022/04/27 16:26:04;;;;;;;2.60;2.20;;;33.40;45.40;;;;;;6234512;23;20027;-74
2022/04/27 16:28:30;;;;;;;3.83;2.58;;;33.30;45.80;;;;;;6234384;23;20052;-74
2022/04/27 16:30:56;;;;;;;2.83;2.08;;;32.70;46.40;;;;;;6229453;23;20012;-74
2022/04/27 16:33:22;;;;;;;3.88;2.92;;;32.30;47.20;;;;;;6234241;23;20235;-74
2022/04/27 16:35:48;;;;;;;4.55;2.85;;;32.60;46.60;;;;;;6233370;23;20008;-74
2022/04/27 16:38:14;;;;;;;2.80;2.40;;;32.80;46.90;;;;;;6234468;23;20175;-74
2022/04/27 16:40:40;;;;;;;3.42;2.70;;;32.80;45.80;;;;;;6197466;23;20008;-75
2022/04/27 16:43:12;;;;;;;3.13;2.75;;;32.40;45.80;;;;;;6234181;23;20001;-75
2022/04/27 16:45:39;;;;;;;3.40;2.63;;;32.20;46.20;;;;;;6230238;23;20031;-74
2022/04/27 16:48:05;;;;;;;3.07;2.50;;;31.90;47.80;;;;;;6233346;23;20163;-75
2022/04/27 16:50:31;;;;;;;3.17;2.47;;;31.80;46.60;;;;;;6233901;23;20001;-75
2022/04/27 16:52:57;;;;;;;4.18;3.03;;;31.00;46.50;;;;;;6233924;23;20080;-76
2022/04/27 16:55:22;;;;;;;3.25;2.53;;;30.00;46.70;;;;;;6235113;23;20012;-76
2022/04/27 16:57:49;;;;;;;4.43;3.00;;;28.20;48.10;;;;;;6233961;23;19993;-76
2022/04/27 17:02:59;;;;;;;3.67;2.60;;;24.90;53.90;;;;;;6232417;23;20031;-76
2022/04/27 17:05:26;;;;;;;4.22;2.75;;;23.80;53.60;;;;;;6234129;23;20005;-76
2022/04/27 17:07:52;;;;;;;4.13;2.72;;;23.00;56.80;;;;;;6233118;23;20007;-76
2022/04/27 17:10:18;;;;;;;5.78;3.38;;;22.50;56.10;;;;;;6234293;23;19989;-75
2022/04/27 17:12:44;;;;;;;4.82;3.20;;;22.00;56.80;;;;;;6197194;23;20004;-77
2022/04/27 17:15:10;;;;;;;4.55;3.20;;;21.50;59.00;;;;;;6206167;23;20236;-75
2022/04/27 17:17:35;;;;;;;5.65;3.13;;;21.20;60.20;;;;;;6233021;23;20005;-77
2022/04/27 17:20:02;;;;;;;4.15;3.33;;;21.00;59.40;;;;;;6207329;23;20001;-77
2022/04/27 17:22:28;;;;;;;4.18;3.58;;;20.70;60.50;;;;;;6233710;23;20000;-77
2022/04/27 17:24:54;;;;;;;5.00;3.20;;;20.70;62.10;;;;;;6233305;23;20004;-75
2022/04/27 17:27:31;;;;;;;4.75;3.28;;;20.90;61.20;;;;;;6234141;23;20010;-77
2022/04/27 17:30:05;;;;;;;3.50;2.95;;;20.80;60.60;;;;;;6196816;23;20015;-77
2022/04/27 17:32:32;;;;;;;4.18;2.80;;;20.60;59.30;;;;;;6223360;23;20008;-78
2022/04/27 17:34:58;;;;;;;6.10;2.70;;;20.50;58.70;;;;;;6233036;23;20036;-76
2022/04/27 17:37:23;;;;;;;3.25;2.40;;;20.40;58.10;;;;;;6233653;23;20051;-75
2022/04/27 17:39:49;;;;;;;4.03;2.65;;;20.10;57.50;;;;;;6233507;23;20184;-75
2022/04/27 17:45:01;;;;;;;3.03;2.17;;;19.50;59.30;;;;;;6232947;23;20051;-75
2022/04/27 17:47:28;;;;;;;4.40;2.58;;;19.20;60.00;;;;;;6223292;23;20019;-75
2022/04/27 17:49:54;;;;;;;4.25;2.30;;;19.00;60.70;;;;;;6233028;23;20004;-75
2022/04/27 17:52:20;;;;;;;4.20;3.10;;;18.80;61.00;;;;;;6233966;23;20222;-76
2022/04/27 17:54:46;;;;;;;4.07;2.80;;;18.40;61.10;;;;;;6233189;23;20337;-77
2022/04/27 17:57:12;;;;;;;3.70;2.40;;;18.20;62.80;;;;;;6233308;23;20027;-77
2022/04/27 17:59:42;;;;;;;4.05;2.70;;;18.10;63.00;;;;;;6233274;23;20246;-77
2022/04/27 18:02:07;;;;;;;3.60;2.67;;;18.00;64.10;;;;;;6196176;23;20020;-76
2022/04/27 18:04:34;;;;;;;4.00;2.92;;;17.90;63.90;;;;;;6233624;23;20005;-75
2022/04/27 18:07:00;;;;;;;5.88;2.15;;;17.70;63.80;;;;;;6233341;23;20011;-75
2022/04/27 18:09:29;;;;;;;5.05;2.67;;;17.40;64.40;;;;;;6232659;23;20027;-75
2022/04/27 18:11:57;;;;;;;4.47;2.80;;;17.30;65.80;;;;;;6232284;23;20000;-75
2022/04/27 18:14:23;;;;;;;2.97;2.20;;;17.10;67.10;;;;;;6233999;23;20001;-76
2022/04/27 18:16:52;;;;;;;4.70;2.72;;;17.00;67.10;;;;;;6224003;23;20040;-76
2022/04/27 18:19:19;;;;;;;4.72;2.88;;;16.90;66.40;;;;;;6233217;23;20008;-75
2022/04/27 18:21:45;;;;;;;4.43;2.53;;;16.60;66.90;;;;;;6232946;23;20227;-78
2022/04/27 18:24:11;;;;;;;4.15;2.92;;;16.30;67.20;;;;;;6233689;23;19993;-75